sensor_id;sensor_type;location;lat;lon;timestamp;P1;durP1;ratioP1;P2;durP2;ratioP2
45208;SDS011;30951;43.994;26.260;2023-04-03T00:01:08;9.88;;;6.60;;
45208;SDS011;30951;43.994;26.260;2023-04-03T00:03:34;10.05;;;7.03;;
45208;SDS011;30951;43.994;26.260;2023-04-03T00:06:00;12.57;;;7.45;;
45208;SDS011;30951;43.994;26.260;2023-04-03T00:08:25;7.50;;;5.82;;
45208;SDS011;30951;43.994;26.260;2023-04-03T00:10:51;7.68;;;6.35;;
45208;SDS011;30951;43.994;26.260;2023-04-03T00:13:16;7.15;;;6.18;;
45208;SDS011;30951;43.994;26.260;2023-04-03T00:15:42;7.35;;;6.13;;
45208;SDS011;30951;43.994;26.260;2023-04-03T00:18:08;7.43;;;6.00;;
45208;SDS011;30951;43.994;26.260;2023-04-03T00:20:34;9.25;;;6.50;;
45208;SDS011;30951;43.994;26.260;2023-04-03T00:22:59;19.23;;;11.35;;
45208;SDS011;30951;43.994;26.260;2023-04-03T00:25:26;10.73;;;8.18;;
45208;SDS011;30951;43.994;26.260;2023-04-03T00:27:52;10.27;;;7.20;;
45208;SDS011;30951;43.994;26.260;2023-04-03T00:30:18;12.07;;;8.25;;
45208;SDS011;30951;43.994;26.260;2023-04-03T00:32:45;20.77;;;12.57;;
45208;SDS011;30951;43.994;26.260;2023-04-03T00:35:10;27.42;;;17.02;;
45208;SDS011;30951;43.994;26.260;2023-04-03T00:37:36;12.82;;;8.98;;
45208;SDS011;30951;43.994;26.260;2023-04-03T00:40:02;9.40;;;7.82;;
45208;SDS011;30951;43.994;26.260;2023-04-03T00:42:28;10.32;;;7.68;;
45208;SDS011;30951;43.994;26.260;2023-04-03T00:47:22;10.85;;;8.52;;
45208;SDS011;30951;43.994;26.260;2023-04-03T00:49:48;12.52;;;9.38;;
45208;SDS011;30951;43.994;26.260;2023-04-03T00:52:16;14.60;;;9.38;;
45208;SDS011;30951;43.994;26.260;2023-04-03T00:54:43;14.32;;;10.82;;
45208;SDS011;30951;43.994;26.260;2023-04-03T00:57:09;13.88;;;9.48;;
45208;SDS011;30951;43.994;26.260;2023-04-03T00:59:36;15.02;;;10.27;;
45208;SDS011;30951;43.994;26.260;2023-04-03T01:02:07;11.80;;;8.80;;
45208;SDS011;30951;43.994;26.260;2023-04-03T01:07:01;10.00;;;8.18;;
45208;SDS011;30951;43.994;26.260;2023-04-03T01:09:28;10.45;;;8.90;;
45208;SDS011;30951;43.994;26.260;2023-04-03T01:11:53;11.15;;;8.50;;
45208;SDS011;30951;43.994;26.260;2023-04-03T01:14:19;11.57;;;9.00;;
45208;SDS011;30951;43.994;26.260;2023-04-03T01:16:54;12.48;;;9.13;;
45208;SDS011;30951;43.994;26.260;2023-04-03T01:19:19;12.20;;;9.68;;
45208;SDS011;30951;43.994;26.260;2023-04-03T01:24:51;13.70;;;7.70;;
45208;SDS011;30951;43.994;26.260;2023-04-03T01:27:18;11.63;;;7.90;;
45208;SDS011;30951;43.994;26.260;2023-04-03T01:29:43;10.38;;;8.15;;
45208;SDS011;30951;43.994;26.260;2023-04-03T01:32:09;12.18;;;8.60;;
45208;SDS011;30951;43.994;26.260;2023-04-03T01:34:35;11.15;;;7.82;;
45208;SDS011;30951;43.994;26.260;2023-04-03T01:37:00;14.15;;;7.68;;
45208;SDS011;30951;43.994;26.260;2023-04-03T01:39:26;9.45;;;7.28;;
45208;SDS011;30951;43.994;26.260;2023-04-03T01:41:52;14.52;;;9.35;;
45208;SDS011;30951;43.994;26.260;2023-04-03T01:44:17;9.60;;;6.85;;
45208;SDS011;30951;43.994;26.260;2023-04-03T01:46:43;8.75;;;6.60;;
45208;SDS011;30951;43.994;26.260;2023-04-03T01:49:08;6.85;;;5.22;;
45208;SDS011;30951;43.994;26.260;2023-04-03T01:51:34;8.85;;;6.35;;
45208;SDS011;30951;43.994;26.260;2023-04-03T01:54:00;7.38;;;5.82;;
45208;SDS011;30951;43.994;26.260;2023-04-03T01:56:25;7.05;;;4.93;;
45208;SDS011;30951;43.994;26.260;2023-04-03T01:58:51;8.85;;;5.05;;
45208;SDS011;30951;43.994;26.260;2023-04-03T02:01:17;7.72;;;5.10;;
45208;SDS011;30951;43.994;26.260;2023-04-03T02:03:42;5.63;;;5.07;;
45208;SDS011;30951;43.994;26.260;2023-04-03T02:06:08;5.75;;;5.13;;
45208;SDS011;30951;43.994;26.260;2023-04-03T02:08:34;12.38;;;5.32;;
45208;SDS011;30951;43.994;26.260;2023-04-03T02:11:00;9.40;;;5.53;;
45208;SDS011;30951;43.994;26.260;2023-04-03T02:13:26;8.35;;;5.45;;
45208;SDS011;30951;43.994;26.260;2023-04-03T02:15:51;9.40;;;5.57;;
45208;SDS011;30951;43.994;26.260;2023-04-03T02:18:17;7.50;;;5.20;;
45208;SDS011;30951;43.994;26.260;2023-04-03T02:20:43;7.72;;;5.03;;
45208;SDS011;30951;43.994;26.260;2023-04-03T02:23:08;8.07;;;5.35;;
45208;SDS011;30951;43.994;26.260;2023-04-03T02:25:34;7.40;;;5.95;;
45208;SDS011;30951;43.994;26.260;2023-04-03T02:28:00;8.98;;;5.72;;
45208;SDS011;30951;43.994;26.260;2023-04-03T02:30:25;10.73;;;5.60;;
45208;SDS011;30951;43.994;26.260;2023-04-03T02:32:51;11.02;;;7.35;;
45208;SDS011;30951;43.994;26.260;2023-04-03T02:35:17;10.13;;;6.15;;
45208;SDS011;30951;43.994;26.260;2023-04-03T02:37:42;10.07;;;5.55;;
45208;SDS011;30951;43.994;26.260;2023-04-03T02:40:08;10.43;;;6.75;;
45208;SDS011;30951;43.994;26.260;2023-04-03T02:42:34;12.18;;;6.82;;
45208;SDS011;30951;43.994;26.260;2023-04-03T02:44:59;8.55;;;6.45;;
45208;SDS011;30951;43.994;26.260;2023-04-03T02:47:26;13.07;;;7.13;;
45208;SDS011;30951;43.994;26.260;2023-04-03T02:49:52;8.85;;;5.75;;
45208;SDS011;30951;43.994;26.260;2023-04-03T02:52:17;10.10;;;5.05;;
45208;SDS011;30951;43.994;26.260;2023-04-03T02:54:43;5.13;;;4.20;;
45208;SDS011;30951;43.994;26.260;2023-04-03T02:57:09;7.13;;;4.53;;
45208;SDS011;30951;43.994;26.260;2023-04-03T02:59:38;7.03;;;4.25;;
45208;SDS011;30951;43.994;26.260;2023-04-03T03:04:35;8.25;;;4.63;;
45208;SDS011;30951;43.994;26.260;2023-04-03T03:07:00;6.47;;;3.85;;
45208;SDS011;30951;43.994;26.260;2023-04-03T03:09:26;7.07;;;3.88;;
45208;SDS011;30951;43.994;26.260;2023-04-03T03:11:52;6.72;;;4.60;;
45208;SDS011;30951;43.994;26.260;2023-04-03T03:14:17;7.47;;;6.15;;
45208;SDS011;30951;43.994;26.260;2023-04-03T03:16:43;8.15;;;6.47;;
45208;SDS011;30951;43.994;26.260;2023-04-03T03:19:09;9.77;;;7.20;;
45208;SDS011;30951;43.994;26.260;2023-04-03T03:21:34;14.07;;;8.60;;
45208;SDS011;30951;43.994;26.260;2023-04-03T03:24:00;15.98;;;9.60;;
45208;SDS011;30951;43.994;26.260;2023-04-03T03:26:25;15.13;;;10.45;;
45208;SDS011;30951;43.994;26.260;2023-04-03T03:28:51;16.05;;;9.10;;
45208;SDS011;30951;43.994;26.260;2023-04-03T03:31:17;12.68;;;8.60;;
45208;SDS011;30951;43.994;26.260;2023-04-03T03:33:42;11.05;;;7.57;;
45208;SDS011;30951;43.994;26.260;2023-04-03T03:36:08;9.68;;;8.05;;
45208;SDS011;30951;43.994;26.260;2023-04-03T03:38:33;13.23;;;8.88;;
45208;SDS011;30951;43.994;26.260;2023-04-03T03:40:59;11.88;;;7.90;;
45208;SDS011;30951;43.994;26.260;2023-04-03T03:43:25;14.02;;;8.70;;
45208;SDS011;30951;43.994;26.260;2023-04-03T03:45:51;16.85;;;11.32;;
45208;SDS011;30951;43.994;26.260;2023-04-03T03:48:18;16.52;;;10.82;;
45208;SDS011;30951;43.994;26.260;2023-04-03T03:50:44;16.80;;;11.38;;
45208;SDS011;30951;43.994;26.260;2023-04-03T03:53:10;16.60;;;10.63;;
45208;SDS011;30951;43.994;26.260;2023-04-03T03:55:35;18.85;;;10.93;;
45208;SDS011;30951;43.994;26.260;2023-04-03T03:58:01;19.20;;;10.73;;
45208;SDS011;30951;43.994;26.260;2023-04-03T04:00:27;15.40;;;10.25;;
45208;SDS011;30951;43.994;26.260;2023-04-03T04:02:53;20.73;;;11.73;;
45208;SDS011;30951;43.994;26.260;2023-04-03T04:05:18;15.52;;;10.68;;
45208;SDS011;30951;43.994;26.260;2023-04-03T04:07:44;20.58;;;11.20;;
45208;SDS011;30951;43.994;26.260;2023-04-03T04:10:09;17.42;;;11.48;;
45208;SDS011;30951;43.994;26.260;2023-04-03T04:12:35;20.40;;;9.48;;
45208;SDS011;30951;43.994;26.260;2023-04-03T04:15:01;11.63;;;7.00;;
45208;SDS011;30951;43.994;26.260;2023-04-03T04:17:27;12.35;;;7.63;;
45208;SDS011;30951;43.994;26.260;2023-04-03T04:19:53;22.92;;;8.90;;
45208;SDS011;30951;43.994;26.260;2023-04-03T04:22:18;43.35;;;10.82;;
45208;SDS011;30951;43.994;26.260;2023-04-03T04:24:44;42.72;;;11.88;;
45208;SDS011;30951;43.994;26.260;2023-04-03T04:27:09;24.17;;;11.85;;
45208;SDS011;30951;43.994;26.260;2023-04-03T04:29:35;17.23;;;11.63;;
45208;SDS011;30951;43.994;26.260;2023-04-03T04:32:02;20.98;;;11.68;;
45208;SDS011;30951;43.994;26.260;2023-04-03T04:34:28;16.42;;;12.43;;
45208;SDS011;30951;43.994;26.260;2023-04-03T04:36:54;19.73;;;13.05;;
45208;SDS011;30951;43.994;26.260;2023-04-03T04:39:20;14.98;;;10.32;;
45208;SDS011;30951;43.994;26.260;2023-04-03T04:41:45;10.18;;;9.02;;
45208;SDS011;30951;43.994;26.260;2023-04-03T04:44:11;16.08;;;9.20;;
45208;SDS011;30951;43.994;26.260;2023-04-03T04:46:36;13.18;;;9.10;;
45208;SDS011;30951;43.994;26.260;2023-04-03T04:49:02;12.85;;;8.55;;
45208;SDS011;30951;43.994;26.260;2023-04-03T04:51:27;10.93;;;9.40;;
45208;SDS011;30951;43.994;26.260;2023-04-03T04:53:53;10.32;;;8.27;;
45208;SDS011;30951;43.994;26.260;2023-04-03T04:56:18;10.85;;;7.63;;
45208;SDS011;30951;43.994;26.260;2023-04-03T04:58:44;14.90;;;7.38;;
45208;SDS011;30951;43.994;26.260;2023-04-03T05:01:10;8.65;;;6.68;;
45208;SDS011;30951;43.994;26.260;2023-04-03T05:03:36;9.35;;;6.80;;
45208;SDS011;30951;43.994;26.260;2023-04-03T05:06:01;6.72;;;5.75;;
45208;SDS011;30951;43.994;26.260;2023-04-03T05:08:27;6.90;;;5.47;;
45208;SDS011;30951;43.994;26.260;2023-04-03T05:10:53;6.18;;;4.68;;
45208;SDS011;30951;43.994;26.260;2023-04-03T05:13:19;7.45;;;4.90;;
45208;SDS011;30951;43.994;26.260;2023-04-03T05:15:45;25.70;;;6.45;;
45208;SDS011;30951;43.994;26.260;2023-04-03T05:18:11;6.78;;;4.55;;
45208;SDS011;30951;43.994;26.260;2023-04-03T05:20:36;4.53;;;4.10;;
45208;SDS011;30951;43.994;26.260;2023-04-03T05:23:02;4.32;;;3.83;;
45208;SDS011;30951;43.994;26.260;2023-04-03T05:25:28;5.53;;;3.20;;
45208;SDS011;30951;43.994;26.260;2023-04-03T05:27:54;4.28;;;3.67;;
45208;SDS011;30951;43.994;26.260;2023-04-03T05:30:20;8.13;;;3.60;;
45208;SDS011;30951;43.994;26.260;2023-04-03T05:32:45;5.13;;;4.00;;
45208;SDS011;30951;43.994;26.260;2023-04-03T05:35:11;9.25;;;4.03;;
45208;SDS011;30951;43.994;26.260;2023-04-03T05:37:36;5.22;;;3.88;;
45208;SDS011;30951;43.994;26.260;2023-04-03T05:40:03;8.13;;;3.50;;
45208;SDS011;30951;43.994;26.260;2023-04-03T05:42:29;4.07;;;3.67;;
45208;SDS011;30951;43.994;26.260;2023-04-03T05:44:55;7.10;;;4.15;;
45208;SDS011;30951;43.994;26.260;2023-04-03T05:47:20;6.00;;;3.72;;
45208;SDS011;30951;43.994;26.260;2023-04-03T05:49:46;5.60;;;4.00;;
45208;SDS011;30951;43.994;26.260;2023-04-03T05:52:28;5.15;;;3.78;;
45208;SDS011;30951;43.994;26.260;2023-04-03T05:54:55;5.85;;;3.20;;
45208;SDS011;30951;43.994;26.260;2023-04-03T05:57:21;5.50;;;3.92;;
45208;SDS011;30951;43.994;26.260;2023-04-03T05:59:47;5.50;;;3.72;;
45208;SDS011;30951;43.994;26.260;2023-04-03T06:02:14;4.22;;;3.50;;
45208;SDS011;30951;43.994;26.260;2023-04-03T06:04:41;12.00;;;3.90;;
45208;SDS011;30951;43.994;26.260;2023-04-03T06:07:08;5.22;;;3.70;;
45208;SDS011;30951;43.994;26.260;2023-04-03T06:09:37;4.38;;;3.13;;
45208;SDS011;30951;43.994;26.260;2023-04-03T06:12:02;3.85;;;3.15;;
45208;SDS011;30951;43.994;26.260;2023-04-03T06:14:28;3.67;;;3.38;;
45208;SDS011;30951;43.994;26.260;2023-04-03T06:16:54;4.45;;;3.63;;
45208;SDS011;30951;43.994;26.260;2023-04-03T06:19:19;4.43;;;3.47;;
45208;SDS011;30951;43.994;26.260;2023-04-03T06:21:46;3.28;;;2.97;;
45208;SDS011;30951;43.994;26.260;2023-04-03T06:24:13;4.25;;;3.47;;
45208;SDS011;30951;43.994;26.260;2023-04-03T06:26:40;3.40;;;3.10;;
45208;SDS011;30951;43.994;26.260;2023-04-03T06:29:06;2.83;;;2.63;;
45208;SDS011;30951;43.994;26.260;2023-04-03T06:31:32;4.38;;;2.75;;
45208;SDS011;30951;43.994;26.260;2023-04-03T06:33:57;8.70;;;4.07;;
45208;SDS011;30951;43.994;26.260;2023-04-03T06:36:23;4.50;;;2.70;;
45208;SDS011;30951;43.994;26.260;2023-04-03T06:38:49;11.45;;;3.60;;
45208;SDS011;30951;43.994;26.260;2023-04-03T06:41:14;3.42;;;2.92;;
45208;SDS011;30951;43.994;26.260;2023-04-03T06:43:41;3.25;;;2.95;;
45208;SDS011;30951;43.994;26.260;2023-04-03T06:46:12;4.20;;;3.13;;
45208;SDS011;30951;43.994;26.260;2023-04-03T06:48:41;5.03;;;2.78;;
45208;SDS011;30951;43.994;26.260;2023-04-03T06:51:11;2.97;;;2.05;;
45208;SDS011;30951;43.994;26.260;2023-04-03T06:53:50;3.38;;;2.97;;
45208;SDS011;30951;43.994;26.260;2023-04-03T06:56:17;3.60;;;3.30;;
45208;SDS011;30951;43.994;26.260;2023-04-03T06:58:43;3.33;;;3.08;;
45208;SDS011;30951;43.994;26.260;2023-04-03T07:01:10;2.92;;;2.60;;
45208;SDS011;30951;43.994;26.260;2023-04-03T07:03:37;3.17;;;2.88;;
45208;SDS011;30951;43.994;26.260;2023-04-03T07:06:04;2.85;;;2.58;;
45208;SDS011;30951;43.994;26.260;2023-04-03T07:08:31;3.10;;;2.80;;
45208;SDS011;30951;43.994;26.260;2023-04-03T07:10:56;4.72;;;2.78;;
45208;SDS011;30951;43.994;26.260;2023-04-03T07:13:22;4.25;;;3.03;;
45208;SDS011;30951;43.994;26.260;2023-04-03T07:15:47;4.35;;;2.55;;
45208;SDS011;30951;43.994;26.260;2023-04-03T07:18:13;5.15;;;2.92;;
45208;SDS011;30951;43.994;26.260;2023-04-03T07:20:39;3.60;;;2.60;;
45208;SDS011;30951;43.994;26.260;2023-04-03T07:23:05;2.85;;;2.50;;
45208;SDS011;30951;43.994;26.260;2023-04-03T07:25:30;4.85;;;2.67;;
45208;SDS011;30951;43.994;26.260;2023-04-03T07:27:57;2.78;;;2.25;;
45208;SDS011;30951;43.994;26.260;2023-04-03T07:30:22;6.60;;;3.13;;
45208;SDS011;30951;43.994;26.260;2023-04-03T07:32:48;2.67;;;2.40;;
45208;SDS011;30951;43.994;26.260;2023-04-03T07:35:14;5.82;;;2.50;;
45208;SDS011;30951;43.994;26.260;2023-04-03T07:37:39;3.30;;;2.88;;
45208;SDS011;30951;43.994;26.260;2023-04-03T07:40:05;3.03;;;2.25;;
45208;SDS011;30951;43.994;26.260;2023-04-03T07:42:31;2.97;;;2.58;;
45208;SDS011;30951;43.994;26.260;2023-04-03T07:44:57;3.42;;;2.75;;
45208;SDS011;30951;43.994;26.260;2023-04-03T07:47:22;2.78;;;2.38;;
45208;SDS011;30951;43.994;26.260;2023-04-03T07:49:48;4.85;;;2.80;;
45208;SDS011;30951;43.994;26.260;2023-04-03T07:52:14;2.95;;;2.65;;
45208;SDS011;30951;43.994;26.260;2023-04-03T07:54:42;3.05;;;2.75;;
45208;SDS011;30951;43.994;26.260;2023-04-03T07:57:08;4.60;;;2.22;;
45208;SDS011;30951;43.994;26.260;2023-04-03T07:59:33;2.83;;;2.38;;
45208;SDS011;30951;43.994;26.260;2023-04-03T08:01:59;5.47;;;2.75;;
45208;SDS011;30951;43.994;26.260;2023-04-03T08:04:25;3.78;;;2.38;;
45208;SDS011;30951;43.994;26.260;2023-04-03T08:06:51;4.28;;;3.42;;
45208;SDS011;30951;43.994;26.260;2023-04-03T08:09:17;4.00;;;2.75;;
45208;SDS011;30951;43.994;26.260;2023-04-03T08:11:42;2.97;;;2.53;;
45208;SDS011;30951;43.994;26.260;2023-04-03T08:14:08;3.55;;;2.90;;
45208;SDS011;30951;43.994;26.260;2023-04-03T08:16:36;3.85;;;3.50;;
45208;SDS011;30951;43.994;26.260;2023-04-03T08:19:01;4.03;;;3.60;;
45208;SDS011;30951;43.994;26.260;2023-04-03T08:21:27;3.50;;;3.20;;
45208;SDS011;30951;43.994;26.260;2023-04-03T08:23:52;4.07;;;3.33;;
45208;SDS011;30951;43.994;26.260;2023-04-03T08:26:19;9.15;;;3.65;;
45208;SDS011;30951;43.994;26.260;2023-04-03T08:28:46;3.53;;;2.97;;
45208;SDS011;30951;43.994;26.260;2023-04-03T08:31:13;3.78;;;3.45;;
45208;SDS011;30951;43.994;26.260;2023-04-03T08:33:41;5.30;;;3.65;;
45208;SDS011;30951;43.994;26.260;2023-04-03T08:36:07;3.92;;;3.53;;
45208;SDS011;30951;43.994;26.260;2023-04-03T08:38:42;8.38;;;5.05;;
45208;SDS011;30951;43.994;26.260;2023-04-03T08:41:13;5.22;;;4.72;;
45208;SDS011;30951;43.994;26.260;2023-04-03T08:46:34;5.55;;;4.10;;
45208;SDS011;30951;43.994;26.260;2023-04-03T08:49:26;5.25;;;4.78;;
45208;SDS011;30951;43.994;26.260;2023-04-03T08:51:53;4.65;;;4.22;;
45208;SDS011;30951;43.994;26.260;2023-04-03T08:56:51;4.53;;;4.13;;
45208;SDS011;30951;43.994;26.260;2023-04-03T08:59:19;6.03;;;5.43;;
45208;SDS011;30951;43.994;26.260;2023-04-03T09:01:50;4.00;;;3.67;;
45208;SDS011;30951;43.994;26.260;2023-04-03T09:04:16;6.68;;;4.40;;
45208;SDS011;30951;43.994;26.260;2023-04-03T09:06:42;4.85;;;4.28;;
45208;SDS011;30951;43.994;26.260;2023-04-03T09:16:54;6.68;;;4.72;;
45208;SDS011;30951;43.994;26.260;2023-04-03T09:21:50;36.00;;;7.43;;
45208;SDS011;30951;43.994;26.260;2023-04-03T09:24:16;6.60;;;5.10;;
45208;SDS011;30951;43.994;26.260;2023-04-03T09:26:48;4.75;;;4.35;;
45208;SDS011;30951;43.994;26.260;2023-04-03T09:29:20;4.78;;;3.97;;
45208;SDS011;30951;43.994;26.260;2023-04-03T09:31:48;4.80;;;3.70;;
45208;SDS011;30951;43.994;26.260;2023-04-03T09:34:18;6.18;;;4.40;;
45208;SDS011;30951;43.994;26.260;2023-04-03T09:36:57;4.65;;;3.90;;
45208;SDS011;30951;43.994;26.260;2023-04-03T09:39:25;5.65;;;5.10;;
45208;SDS011;30951;43.994;26.260;2023-04-03T09:42:11;7.65;;;5.53;;
45208;SDS011;30951;43.994;26.260;2023-04-03T09:44:44;6.55;;;4.63;;
45208;SDS011;30951;43.994;26.260;2023-04-03T09:47:26;5.80;;;4.18;;
45208;SDS011;30951;43.994;26.260;2023-04-03T09:52:47;4.40;;;4.00;;
45208;SDS011;30951;43.994;26.260;2023-04-03T09:55:20;4.70;;;4.30;;
45208;SDS011;30951;43.994;26.260;2023-04-03T09:57:58;4.22;;;3.83;;
45208;SDS011;30951;43.994;26.260;2023-04-03T10:00:26;5.85;;;4.25;;
45208;SDS011;30951;43.994;26.260;2023-04-03T10:02:55;4.53;;;4.13;;
45208;SDS011;30951;43.994;26.260;2023-04-03T10:09:00;4.25;;;3.80;;
45208;SDS011;30951;43.994;26.260;2023-04-03T10:11:11;5.00;;;3.90;;
45208;SDS011;30951;43.994;26.260;2023-04-03T10:16:41;4.32;;;4.00;;
45208;SDS011;30951;43.994;26.260;2023-04-03T10:19:18;5.30;;;4.28;;
45208;SDS011;30951;43.994;26.260;2023-04-03T10:27:21;5.35;;;4.85;;
45208;SDS011;30951;43.994;26.260;2023-04-03T10:32:42;5.07;;;4.55;;
45208;SDS011;30951;43.994;26.260;2023-04-03T10:38:04;6.45;;;4.70;;
45208;SDS011;30951;43.994;26.260;2023-04-03T10:41:07;8.20;;;5.33;;
45208;SDS011;30951;43.994;26.260;2023-04-03T10:46:26;5.40;;;4.90;;
45208;SDS011;30951;43.994;26.260;2023-04-03T10:52:42;5.82;;;5.10;;
45208;SDS011;30951;43.994;26.260;2023-04-03T10:57:43;4.85;;;4.40;;
45208;SDS011;30951;43.994;26.260;2023-04-03T11:00:14;5.97;;;5.10;;
45208;SDS011;30951;43.994;26.260;2023-04-03T11:02:54;4.75;;;4.35;;
45208;SDS011;30951;43.994;26.260;2023-04-03T11:05:26;4.72;;;4.32;;
45208;SDS011;30951;43.994;26.260;2023-04-03T11:07:56;8.40;;;4.38;;
45208;SDS011;30951;43.994;26.260;2023-04-03T11:13:06;5.32;;;4.80;;
45208;SDS011;30951;43.994;26.260;2023-04-03T11:15:36;4.78;;;4.35;;
45208;SDS011;30951;43.994;26.260;2023-04-03T11:18:04;6.05;;;5.20;;
45208;SDS011;30951;43.994;26.260;2023-04-03T11:20:32;5.28;;;4.43;;
45208;SDS011;30951;43.994;26.260;2023-04-03T11:23:03;5.07;;;4.57;;
45208;SDS011;30951;43.994;26.260;2023-04-03T11:25:34;7.88;;;5.63;;
45208;SDS011;30951;43.994;26.260;2023-04-03T11:28:05;5.55;;;4.97;;
45208;SDS011;30951;43.994;26.260;2023-04-03T11:36:10;5.38;;;4.88;;
45208;SDS011;30951;43.994;26.260;2023-04-03T11:38:42;5.32;;;4.82;;
45208;SDS011;30951;43.994;26.260;2023-04-03T11:41:09;5.18;;;4.55;;
45208;SDS011;30951;43.994;26.260;2023-04-03T11:43:57;5.88;;;5.07;;
45208;SDS011;30951;43.994;26.260;2023-04-03T12:08:43;6.88;;;6.00;;
45208;SDS011;30951;43.994;26.260;2023-04-03T12:13:40;7.15;;;5.47;;
45208;SDS011;30951;43.994;26.260;2023-04-03T12:21:11;5.28;;;4.75;;
45208;SDS011;30951;43.994;26.260;2023-04-03T12:26:26;4.43;;;4.03;;
45208;SDS011;30951;43.994;26.260;2023-04-03T12:28:53;7.35;;;5.03;;
45208;SDS011;30951;43.994;26.260;2023-04-03T12:31:19;11.45;;;5.20;;
45208;SDS011;30951;43.994;26.260;2023-04-03T12:33:51;5.30;;;4.68;;
45208;SDS011;30951;43.994;26.260;2023-04-03T12:36:33;5.07;;;4.60;;
45208;SDS011;30951;43.994;26.260;2023-04-03T12:39:17;5.35;;;4.60;;
45208;SDS011;30951;43.994;26.260;2023-04-03T12:41:51;6.07;;;4.55;;
45208;SDS011;30951;43.994;26.260;2023-04-03T12:47:02;4.75;;;4.30;;
45208;SDS011;30951;43.994;26.260;2023-04-03T12:49:42;5.72;;;4.03;;
45208;SDS011;30951;43.994;26.260;2023-04-03T12:52:26;4.78;;;3.90;;
45208;SDS011;30951;43.994;26.260;2023-04-03T12:54:58;4.50;;;3.88;;
45208;SDS011;30951;43.994;26.260;2023-04-03T12:57:29;5.00;;;4.50;;
45208;SDS011;30951;43.994;26.260;2023-04-03T12:59:55;4.50;;;4.10;;
45208;SDS011;30951;43.994;26.260;2023-04-03T13:02:31;4.13;;;3.72;;
45208;SDS011;30951;43.994;26.260;2023-04-03T13:05:07;8.55;;;6.78;;
45208;SDS011;30951;43.994;26.260;2023-04-03T13:07:35;6.82;;;4.93;;
45208;SDS011;30951;43.994;26.260;2023-04-03T13:10:14;3.97;;;3.67;;
45208;SDS011;30951;43.994;26.260;2023-04-03T13:12:52;6.35;;;4.40;;
45208;SDS011;30951;43.994;26.260;2023-04-03T13:15:24;5.85;;;4.07;;
45208;SDS011;30951;43.994;26.260;2023-04-03T13:17:55;5.53;;;5.00;;
45208;SDS011;30951;43.994;26.260;2023-04-03T13:25:17;5.60;;;4.78;;
45208;SDS011;30951;43.994;26.260;2023-04-03T13:27:43;8.52;;;4.90;;
45208;SDS011;30951;43.994;26.260;2023-04-03T13:32:50;4.80;;;4.30;;
45208;SDS011;30951;43.994;26.260;2023-04-03T13:38:01;5.45;;;4.95;;
45208;SDS011;30951;43.994;26.260;2023-04-03T13:40:48;5.20;;;4.57;;
45208;SDS011;30951;43.994;26.260;2023-04-03T13:43:24;4.70;;;4.22;;
45208;SDS011;30951;43.994;26.260;2023-04-03T13:45:56;5.32;;;4.68;;
45208;SDS011;30951;43.994;26.260;2023-04-03T13:48:34;5.40;;;4.90;;
45208;SDS011;30951;43.994;26.260;2023-04-03T13:51:04;5.63;;;4.45;;
45208;SDS011;30951;43.994;26.260;2023-04-03T13:53:33;5.13;;;4.28;;
45208;SDS011;30951;43.994;26.260;2023-04-03T13:58:28;8.68;;;4.68;;
45208;SDS011;30951;43.994;26.260;2023-04-03T14:01:05;6.13;;;5.20;;
45208;SDS011;30951;43.994;26.260;2023-04-03T14:03:40;5.68;;;4.90;;
45208;SDS011;30951;43.994;26.260;2023-04-03T14:06:12;6.05;;;5.18;;
45208;SDS011;30951;43.994;26.260;2023-04-03T14:08:40;17.90;;;8.80;;
45208;SDS011;30951;43.994;26.260;2023-04-03T14:11:21;6.07;;;4.97;;
45208;SDS011;30951;43.994;26.260;2023-04-03T14:13:48;5.70;;;5.15;;
45208;SDS011;30951;43.994;26.260;2023-04-03T14:16:16;7.28;;;5.53;;
45208;SDS011;30951;43.994;26.260;2023-04-03T14:18:44;26.85;;;15.85;;
45208;SDS011;30951;43.994;26.260;2023-04-03T14:21:11;7.55;;;6.00;;
45208;SDS011;30951;43.994;26.260;2023-04-03T14:23:38;8.88;;;7.15;;
45208;SDS011;30951;43.994;26.260;2023-04-03T14:26:04;9.27;;;8.30;;
45208;SDS011;30951;43.994;26.260;2023-04-03T14:31:00;7.90;;;6.45;;
45208;SDS011;30951;43.994;26.260;2023-04-03T14:33:26;7.40;;;6.38;;
45208;SDS011;30951;43.994;26.260;2023-04-03T14:35:53;6.55;;;5.88;;
45208;SDS011;30951;43.994;26.260;2023-04-03T14:40:47;6.68;;;5.97;;
45208;SDS011;30951;43.994;26.260;2023-04-03T14:43:12;7.63;;;6.90;;
45208;SDS011;30951;43.994;26.260;2023-04-03T14:45:38;8.43;;;7.22;;
45208;SDS011;30951;43.994;26.260;2023-04-03T14:48:04;7.75;;;6.10;;
45208;SDS011;30951;43.994;26.260;2023-04-03T14:50:30;8.93;;;6.80;;
45208;SDS011;30951;43.994;26.260;2023-04-03T14:52:57;8.00;;;6.97;;
45208;SDS011;30951;43.994;26.260;2023-04-03T14:55:23;8.25;;;7.43;;
45208;SDS011;30951;43.994;26.260;2023-04-03T14:57:50;10.95;;;7.85;;
45208;SDS011;30951;43.994;26.260;2023-04-03T15:00:17;7.82;;;6.88;;
45208;SDS011;30951;43.994;26.260;2023-04-03T15:02:43;8.43;;;7.55;;
45208;SDS011;30951;43.994;26.260;2023-04-03T15:05:10;11.18;;;10.02;;
45208;SDS011;30951;43.994;26.260;2023-04-03T15:07:38;8.07;;;7.15;;
45208;SDS011;30951;43.994;26.260;2023-04-03T15:12:40;6.65;;;5.70;;
45208;SDS011;30951;43.994;26.260;2023-04-03T15:15:06;7.93;;;7.10;;
45208;SDS011;30951;43.994;26.260;2023-04-03T15:17:32;7.45;;;5.72;;
45208;SDS011;30951;43.994;26.260;2023-04-03T15:19:59;8.48;;;6.57;;
45208;SDS011;30951;43.994;26.260;2023-04-03T15:22:25;7.57;;;6.82;;
45208;SDS011;30951;43.994;26.260;2023-04-03T15:24:50;10.43;;;7.60;;
45208;SDS011;30951;43.994;26.260;2023-04-03T15:27:16;10.60;;;7.82;;
45208;SDS011;30951;43.994;26.260;2023-04-03T15:29:42;10.65;;;7.75;;
45208;SDS011;30951;43.994;26.260;2023-04-03T15:32:08;10.45;;;7.40;;
45208;SDS011;30951;43.994;26.260;2023-04-03T15:34:35;8.52;;;7.28;;
45208;SDS011;30951;43.994;26.260;2023-04-03T15:37:01;9.93;;;8.93;;
45208;SDS011;30951;43.994;26.260;2023-04-03T15:39:27;7.57;;;6.75;;
45208;SDS011;30951;43.994;26.260;2023-04-03T15:41:53;13.43;;;10.73;;
45208;SDS011;30951;43.994;26.260;2023-04-03T15:44:19;9.27;;;8.30;;
45208;SDS011;30951;43.994;26.260;2023-04-03T15:46:45;7.82;;;6.75;;
45208;SDS011;30951;43.994;26.260;2023-04-03T15:49:11;8.75;;;7.35;;
45208;SDS011;30951;43.994;26.260;2023-04-03T15:51:37;7.90;;;6.65;;
45208;SDS011;30951;43.994;26.260;2023-04-03T15:54:03;11.10;;;7.65;;
45208;SDS011;30951;43.994;26.260;2023-04-03T15:56:29;9.98;;;7.88;;
45208;SDS011;30951;43.994;26.260;2023-04-03T15:58:54;9.40;;;7.65;;
45208;SDS011;30951;43.994;26.260;2023-04-03T16:01:20;7.63;;;6.75;;
45208;SDS011;30951;43.994;26.260;2023-04-03T16:03:46;15.70;;;7.88;;
45208;SDS011;30951;43.994;26.260;2023-04-03T16:06:12;10.20;;;8.15;;
45208;SDS011;30951;43.994;26.260;2023-04-03T16:08:39;8.18;;;6.97;;
45208;SDS011;30951;43.994;26.260;2023-04-03T16:11:05;10.52;;;7.55;;
45208;SDS011;30951;43.994;26.260;2023-04-03T16:13:30;7.82;;;6.82;;
45208;SDS011;30951;43.994;26.260;2023-04-03T16:15:56;8.50;;;7.70;;
45208;SDS011;30951;43.994;26.260;2023-04-03T16:18:21;10.55;;;7.07;;
45208;SDS011;30951;43.994;26.260;2023-04-03T16:20:47;9.05;;;8.15;;
45208;SDS011;30951;43.994;26.260;2023-04-03T16:23:13;8.82;;;7.25;;
45208;SDS011;30951;43.994;26.260;2023-04-03T16:25:38;11.27;;;7.15;;
45208;SDS011;30951;43.994;26.260;2023-04-03T16:28:04;9.98;;;7.93;;
45208;SDS011;30951;43.994;26.260;2023-04-03T16:30:30;12.93;;;8.27;;
45208;SDS011;30951;43.994;26.260;2023-04-03T16:32:56;9.23;;;7.88;;